createdAt,value
2023-11-17T00:00:15.190Z,100.00
2023-11-17T00:02:19.993Z,100.00
2023-11-17T00:04:24.676Z,100.00
2023-11-17T00:06:29.960Z,100.00
2023-11-17T00:08:34.575Z,100.00
2023-11-17T00:10:39.270Z,100.00
2023-11-17T00:12:44.032Z,100.00
2023-11-17T00:14:49.155Z,100.00
2023-11-17T00:16:53.855Z,100.00
2023-11-17T00:18:58.543Z,100.00
2023-11-17T00:21:03.328Z,100.00
2023-11-17T00:23:11.101Z,100.00
2023-11-17T00:25:15.736Z,100.00
2023-11-17T00:27:20.435Z,100.00
2023-11-17T00:29:25.033Z,100.00
2023-11-17T00:31:29.698Z,100.00
2023-11-17T00:33:34.557Z,100.00
2023-11-17T00:35:39.231Z,100.00
2023-11-17T00:37:44.036Z,100.00
2023-11-17T00:39:48.659Z,100.00
2023-11-17T00:41:53.336Z,100.00
2023-11-17T00:43:59.135Z,100.00
2023-11-17T00:46:04.174Z,100.00
2023-11-17T00:48:11.588Z,100.00
2023-11-17T00:50:16.484Z,100.00
2023-11-17T00:52:24.020Z,100.00
2023-11-17T00:54:28.696Z,100.00
2023-11-17T00:56:33.591Z,100.00
2023-11-17T00:58:38.241Z,100.00
2023-11-17T01:00:42.869Z,100.00
2023-11-17T01:02:50.044Z,100.00
2023-11-17T01:04:54.756Z,100.00
2023-11-17T01:06:59.588Z,100.00
2023-11-17T01:09:04.383Z,100.00
2023-11-17T01:11:09.414Z,100.00
2023-11-17T01:13:14.222Z,100.00
2023-11-17T01:15:18.937Z,100.00
2023-11-17T01:17:23.721Z,100.00
2023-11-17T01:19:28.308Z,100.00
2023-11-17T01:21:33.407Z,100.00
2023-11-17T01:23:38.042Z,100.00
2023-11-17T01:25:46.453Z,100.00
2023-11-17T01:27:51.130Z,100.00
2023-11-17T01:29:55.762Z,100.00
2023-11-17T01:32:00.597Z,100.00
2023-11-17T01:34:05.512Z,100.00
2023-11-17T01:36:11.563Z,100.00
2023-11-17T01:38:19.023Z,100.00
2023-11-17T01:40:23.796Z,100.00
2023-11-17T01:42:33.379Z,100.00
2023-11-17T01:44:38.004Z,100.00
2023-11-17T01:46:43.330Z,100.00
2023-11-17T01:48:48.275Z,100.00
2023-11-17T01:50:53.598Z,100.00
2023-11-17T01:52:58.231Z,100.00
2023-11-17T01:55:04.755Z,100.00
2023-11-17T01:57:09.949Z,100.00
2023-11-17T01:59:14.604Z,100.00
2023-11-17T02:01:19.337Z,100.00
2023-11-17T02:03:24.201Z,100.00
2023-11-17T02:05:29.257Z,100.00
2023-11-17T02:07:38.171Z,100.00
2023-11-17T02:09:56.322Z,100.00
2023-11-17T02:12:08.881Z,100.00
2023-11-17T02:14:21.130Z,100.00
2023-11-17T02:16:30.518Z,100.00
2023-11-17T02:18:36.278Z,100.00
2023-11-17T02:20:44.818Z,100.00
2023-11-17T02:22:53.018Z,100.00
2023-11-17T02:25:10.303Z,100.00
2023-11-17T02:27:22.827Z,100.00
2023-11-17T02:29:29.607Z,100.00
2023-11-17T02:31:35.365Z,100.00
2023-11-17T02:33:40.514Z,100.00
2023-11-17T02:35:45.245Z,100.00
2023-11-17T02:37:50.363Z,100.00
2023-11-17T02:39:59.650Z,100.00
2023-11-17T02:42:04.669Z,100.00
2023-11-17T02:44:09.580Z,100.00
2023-11-17T02:46:14.254Z,100.00
2023-11-17T02:48:24.972Z,100.00
2023-11-17T02:50:35.674Z,100.00
2023-11-17T02:52:41.324Z,100.00
2023-11-17T02:54:47.662Z,100.00
2023-11-17T02:56:53.743Z,100.00
2023-11-17T02:58:59.788Z,100.00
2023-11-17T03:01:05.351Z,100.00
2023-11-17T03:03:10.112Z,100.00
2023-11-17T03:05:19.420Z,100.00
2023-11-17T03:07:24.381Z,100.00
2023-11-17T03:09:29.612Z,100.00
2023-11-17T03:11:34.253Z,100.00
2023-11-17T03:13:38.843Z,100.00
2023-11-17T03:15:43.503Z,100.00
2023-11-17T03:17:48.219Z,100.00
2023-11-17T03:19:52.860Z,100.00
2023-11-17T03:21:57.816Z,100.00
2023-11-17T03:24:02.525Z,100.00
2023-11-17T03:26:07.297Z,100.00
2023-11-17T03:28:12.056Z,100.00
2023-11-17T03:30:17.261Z,100.00
2023-11-17T03:32:22.004Z,100.00
2023-11-17T03:34:27.777Z,100.00
2023-11-17T03:36:32.417Z,100.00
2023-11-17T03:38:37.052Z,100.00
2023-11-17T03:40:43.781Z,100.00
2023-11-17T03:42:48.429Z,100.00
2023-11-17T03:44:53.120Z,100.00
2023-11-17T03:46:58.616Z,100.00
2023-11-17T03:49:03.336Z,100.00
2023-11-17T03:51:09.574Z,100.00
2023-11-17T03:53:14.451Z,100.00
2023-11-17T03:55:20.796Z,100.00
2023-11-17T03:57:25.427Z,100.00
2023-11-17T03:59:30.117Z,100.00
2023-11-17T04:01:36.096Z,100.00
2023-11-17T04:03:40.785Z,100.00
2023-11-17T04:05:46.202Z,100.00
2023-11-17T04:07:50.926Z,100.00
2023-11-17T04:09:55.579Z,100.00
2023-11-17T04:12:00.265Z,100.00
2023-11-17T04:14:04.896Z,100.00
2023-11-17T04:16:10.377Z,100.00
2023-11-17T04:18:17.417Z,100.00
2023-11-17T04:20:25.108Z,100.00
2023-11-17T04:22:29.760Z,100.00
2023-11-17T04:24:34.420Z,100.00
2023-11-17T04:26:39.050Z,100.00
2023-11-17T04:28:43.665Z,100.00
2023-11-17T04:30:48.581Z,100.00
2023-11-17T04:32:53.343Z,100.00
2023-11-17T04:34:57.999Z,100.00
2023-11-17T04:37:02.672Z,100.00
2023-11-17T04:39:07.536Z,100.00
2023-11-17T04:41:14.285Z,100.00
2023-11-17T04:43:19.007Z,100.00
2023-11-17T04:45:23.680Z,100.00
2023-11-17T04:47:29.324Z,100.00
2023-11-17T04:49:33.973Z,100.00
2023-11-17T04:51:38.646Z,100.00
2023-11-17T04:53:43.251Z,100.00
2023-11-17T04:55:47.882Z,100.00
2023-11-17T04:57:52.581Z,100.00
2023-11-17T04:59:57.195Z,100.00
2023-11-17T05:02:01.893Z,100.00
2023-11-17T05:04:06.945Z,100.00
2023-11-17T05:06:11.657Z,100.00
2023-11-17T05:08:16.356Z,100.00
2023-11-17T05:10:21.240Z,100.00
2023-11-17T05:12:25.906Z,100.00
2023-11-17T05:14:30.497Z,100.00
2023-11-17T05:16:35.493Z,100.00
2023-11-17T05:18:40.231Z,100.00
2023-11-17T05:20:47.968Z,100.00
2023-11-17T05:22:52.567Z,100.00
2023-11-17T05:24:57.687Z,100.00
2023-11-17T05:27:02.366Z,100.00
2023-11-17T05:29:07.149Z,100.00
2023-11-17T05:31:11.816Z,100.00
2023-11-17T05:33:16.534Z,100.00
2023-11-17T05:35:21.244Z,100.00
2023-11-17T05:37:26.015Z,100.00
2023-11-17T05:39:30.677Z,100.00
2023-11-17T05:41:35.272Z,100.00
2023-11-17T05:43:42.381Z,100.00
2023-11-17T05:45:46.935Z,100.00
2023-11-17T05:47:51.621Z,100.00
2023-11-17T05:49:56.301Z,100.00
2023-11-17T05:52:01.008Z,100.00
2023-11-17T05:54:05.985Z,100.00
2023-11-17T05:56:10.740Z,100.00
2023-11-17T05:58:15.419Z,100.00
2023-11-17T06:00:20.807Z,100.00
2023-11-17T06:02:25.594Z,100.00
2023-11-17T06:04:30.407Z,100.00
2023-11-17T06:06:35.148Z,100.00
2023-11-17T06:08:39.758Z,100.00
2023-11-17T06:10:44.550Z,100.00
2023-11-17T06:12:49.369Z,100.00
2023-11-17T06:14:54.155Z,100.00
2023-11-17T06:16:59.049Z,100.00
2023-11-17T06:19:03.902Z,100.00
2023-11-17T06:21:08.739Z,100.00
2023-11-17T06:23:13.364Z,100.00
2023-11-17T06:25:18.120Z,100.00
2023-11-17T06:27:22.760Z,100.00
2023-11-17T06:29:27.556Z,100.00
2023-11-17T06:31:32.246Z,100.00
2023-11-17T06:33:36.896Z,100.00
2023-11-17T06:35:41.498Z,100.00
2023-11-17T06:37:46.161Z,100.00
2023-11-17T06:39:50.788Z,100.00
2023-11-17T06:41:55.407Z,100.00
2023-11-17T06:43:59.993Z,100.00
2023-11-17T06:46:04.907Z,100.00
2023-11-17T06:48:09.533Z,100.00
2023-11-17T06:50:14.201Z,100.00
2023-11-17T06:52:18.982Z,100.00
2023-11-17T06:54:23.678Z,100.00
2023-11-17T06:56:28.398Z,100.00
2023-11-17T06:58:33.041Z,100.00
2023-11-17T07:00:37.687Z,100.00
2023-11-17T07:02:42.468Z,100.00
2023-11-17T07:04:47.123Z,100.00
2023-11-17T07:06:51.775Z,100.00
2023-11-17T07:08:56.345Z,100.00
2023-11-17T07:11:00.975Z,100.00
2023-11-17T07:13:08.555Z,100.00
2023-11-17T07:15:13.455Z,100.00
2023-11-17T07:17:18.166Z,100.00
2023-11-17T07:19:22.997Z,100.00
2023-11-17T07:21:28.634Z,100.00
2023-11-17T07:23:36.995Z,100.00
2023-11-17T07:25:41.584Z,100.00
2023-11-17T07:27:46.199Z,100.00
2023-11-17T07:29:50.832Z,100.00
2023-11-17T07:31:55.594Z,100.00
2023-11-17T07:34:00.308Z,100.00
2023-11-17T07:36:05.607Z,100.00
2023-11-17T07:38:10.230Z,100.00
2023-11-17T07:40:15.287Z,100.00
2023-11-17T07:42:20.046Z,100.00
2023-11-17T07:44:24.698Z,100.00
2023-11-17T07:46:29.566Z,100.00
2023-11-17T07:48:41.735Z,100.00
2023-11-17T07:50:52.699Z,100.00
2023-11-17T07:52:57.356Z,100.00
2023-11-17T07:55:02.074Z,100.00
2023-11-17T07:57:07.265Z,100.00
2023-11-17T07:59:11.898Z,100.00
2023-11-17T08:01:16.604Z,100.00
2023-11-17T08:03:21.647Z,100.00
2023-11-17T08:05:26.366Z,100.00
2023-11-17T08:07:31.069Z,100.00
2023-11-17T08:09:35.844Z,100.00
2023-11-17T08:11:40.616Z,100.00
2023-11-17T08:13:45.273Z,100.00
2023-11-17T08:15:50.122Z,100.00
2023-11-17T08:17:54.812Z,100.00
2023-11-17T08:19:59.800Z,100.00
2023-11-17T08:22:04.577Z,100.00
2023-11-17T08:24:10.208Z,100.00
2023-11-17T08:26:14.876Z,100.00
2023-11-17T08:28:19.535Z,100.00
2023-11-17T08:30:26.597Z,100.00
2023-11-17T08:32:34.182Z,100.00
2023-11-17T08:34:39.469Z,100.00
2023-11-17T08:36:44.094Z,100.00
2023-11-17T08:38:48.720Z,100.00
2023-11-17T08:40:53.504Z,100.00
2023-11-17T08:42:58.191Z,100.00
2023-11-17T08:45:02.883Z,100.00
2023-11-17T08:47:10.673Z,100.00
2023-11-17T08:49:15.321Z,100.00
2023-11-17T08:51:19.974Z,100.00
2023-11-17T08:53:24.588Z,100.00
2023-11-17T08:55:29.572Z,100.00
2023-11-17T08:57:35.221Z,100.00
2023-11-17T08:59:40.047Z,100.00
2023-11-17T09:01:45.027Z,100.00
2023-11-17T09:03:49.850Z,100.00
2023-11-17T09:05:54.492Z,100.00
2023-11-17T09:08:01.892Z,100.00
2023-11-17T09:10:07.740Z,100.00
2023-11-17T09:12:12.489Z,100.00
2023-11-17T09:14:18.883Z,100.00
2023-11-17T09:16:26.982Z,100.00
2023-11-17T09:18:35.885Z,100.00
2023-11-17T09:20:42.087Z,100.00
2023-11-17T09:22:47.505Z,100.00
2023-11-17T09:24:52.444Z,100.00
2023-11-17T09:26:57.122Z,100.00
2023-11-17T09:29:01.741Z,100.00
2023-11-17T09:31:06.576Z,100.00
2023-11-17T09:33:11.364Z,100.00
2023-11-17T09:35:16.847Z,100.00
2023-11-17T09:37:21.707Z,100.00
2023-11-17T09:39:26.952Z,100.00
2023-11-17T09:41:31.691Z,100.00
2023-11-17T09:43:39.397Z,100.00
2023-11-17T09:45:45.445Z,100.00
2023-11-17T09:47:53.511Z,100.00
2023-11-17T09:50:00.478Z,100.00
2023-11-17T11:09:50.741Z,93.26
2023-11-17T11:11:55.428Z,93.11
2023-11-17T11:14:01.305Z,94.61
2023-11-17T11:16:09.080Z,94.37
2023-11-17T11:18:17.629Z,94.00
2023-11-17T11:20:23.879Z,93.91
2023-11-17T11:22:29.560Z,94.84
2023-11-17T11:24:39.392Z,97.23
2023-11-17T11:26:45.402Z,97.44
2023-11-17T11:28:52.059Z,94.96
2023-11-17T11:31:01.481Z,94.29
2023-11-17T11:44:46.988Z,93.75
2023-11-17T11:46:52.555Z,91.96
2023-11-17T11:49:02.702Z,93.24
2023-11-17T11:51:10.683Z,93.02
2023-11-17T11:53:33.005Z,93.31
2023-11-17T11:55:37.850Z,90.11
2023-11-17T11:57:42.489Z,87.88
2023-11-17T11:59:47.948Z,86.22
2023-11-17T12:01:56.259Z,83.79
2023-11-17T12:04:03.483Z,85.22
2023-11-17T12:06:09.240Z,82.75
2023-11-17T12:08:25.555Z,82.53
2023-11-17T12:10:39.446Z,83.68
2023-11-17T12:12:46.732Z,81.94
2023-11-17T12:14:52.291Z,82.31
2023-11-17T12:16:58.104Z,81.56
2023-11-17T12:19:04.008Z,80.44
2023-11-17T12:21:20.722Z,73.73
2023-11-17T12:23:48.426Z,73.25
2023-11-17T12:25:53.618Z,73.77
2023-11-17T12:28:00.354Z,73.63
2023-11-17T12:30:07.707Z,72.86
2023-11-17T12:32:14.239Z,71.38
2023-11-17T12:34:19.917Z,70.90
2023-11-17T12:36:26.185Z,71.34
2023-11-17T12:38:31.372Z,70.44
2023-11-17T12:40:36.992Z,70.81
2023-11-17T12:42:42.369Z,71.49
2023-11-17T12:44:48.210Z,71.82
2023-11-17T12:46:55.662Z,73.22
2023-11-17T12:49:04.899Z,74.23
2023-11-17T12:51:10.203Z,74.82
2023-11-17T12:53:15.376Z,74.74
2023-11-17T13:03:25.699Z,74.97
2023-11-17T13:18:12.187Z,75.32
2023-11-17T13:20:19.986Z,75.36
2023-11-17T13:22:25.547Z,75.65
2023-11-17T14:38:24.161Z,68.89
2023-11-17T14:40:28.926Z,69.72
2023-11-17T14:42:33.672Z,70.02
2023-11-17T14:44:38.371Z,70.33
2023-11-17T14:46:43.078Z,70.85
2023-11-17T14:48:48.369Z,71.62
2023-11-17T14:50:53.949Z,72.19
2023-11-17T14:52:58.646Z,72.15
2023-11-17T14:55:03.468Z,72.35
2023-11-17T14:57:08.369Z,72.30
2023-11-17T14:59:13.171Z,73.34
2023-11-17T15:01:17.960Z,74.08
2023-11-17T15:03:22.891Z,74.46
2023-11-17T15:05:27.584Z,74.06
2023-11-17T15:07:32.514Z,74.24
2023-11-17T15:09:37.191Z,74.52
2023-11-17T15:11:41.868Z,74.81
2023-11-17T15:13:47.112Z,74.26
2023-11-17T15:15:51.766Z,73.94
2023-11-17T15:17:56.736Z,74.60
2023-11-17T15:20:01.450Z,74.78
2023-11-17T15:22:06.505Z,74.13
2023-11-17T15:24:12.008Z,73.54
2023-11-17T15:26:16.840Z,73.23
2023-11-17T15:28:21.788Z,73.87
2023-11-17T15:30:26.543Z,73.68
2023-11-17T15:32:34.707Z,73.38
2023-11-17T15:34:39.480Z,73.90
2023-11-17T15:36:44.663Z,72.49
2023-11-17T15:38:50.064Z,71.44
2023-11-17T15:40:54.808Z,71.77
2023-11-17T15:42:59.584Z,71.58
2023-11-17T15:45:04.960Z,72.03
2023-11-17T15:47:10.013Z,72.51
2023-11-17T15:49:15.271Z,73.25
2023-11-17T15:51:20.357Z,73.41
2023-11-17T15:53:25.091Z,73.94
2023-11-17T15:55:32.829Z,73.80
2023-11-17T15:57:37.564Z,73.92
2023-11-17T15:59:45.422Z,74.55
2023-11-17T16:01:50.124Z,74.95
2023-11-17T16:03:55.121Z,74.82
2023-11-17T16:06:00.226Z,74.86
2023-11-17T16:08:05.288Z,75.30
2023-11-17T16:10:11.191Z,75.33
2023-11-17T16:12:15.917Z,75.76
2023-11-17T16:14:20.924Z,76.05
2023-11-17T16:16:25.789Z,76.35
2023-11-17T16:18:30.978Z,76.28
2023-11-17T16:20:38.817Z,76.33
2023-11-17T16:22:45.779Z,76.62
2023-11-17T16:24:50.592Z,76.73
2023-11-17T16:26:55.589Z,77.17
2023-11-17T16:29:00.421Z,77.10
2023-11-17T16:31:05.923Z,77.05
2023-11-17T16:33:10.660Z,77.33
2023-11-17T16:35:16.082Z,77.34
2023-11-17T16:37:20.746Z,77.49
2023-11-17T16:39:25.389Z,77.92
2023-11-17T16:41:30.085Z,77.98
2023-11-17T16:43:35.645Z,78.10
2023-11-17T16:45:41.658Z,78.23
2023-11-17T16:47:46.663Z,77.79
2023-11-17T16:49:51.406Z,78.23
2023-11-17T16:51:56.127Z,77.64
2023-11-17T16:54:00.781Z,77.80
2023-11-17T16:56:07.049Z,77.91
2023-11-17T16:58:12.894Z,77.88
2023-11-17T17:00:19.414Z,77.17
2023-11-17T17:02:24.089Z,77.05
2023-11-17T17:04:29.218Z,76.24
2023-11-17T17:06:33.936Z,76.18
2023-11-17T17:08:41.461Z,76.30
2023-11-17T17:10:46.411Z,76.10
2023-11-17T17:12:55.667Z,75.69
2023-11-17T17:15:00.387Z,75.35
2023-11-17T17:17:05.629Z,75.02
2023-11-17T17:19:10.880Z,75.23
2023-11-17T17:21:16.088Z,75.39
2023-11-17T17:23:21.026Z,75.07
2023-11-17T17:25:26.807Z,74.79
2023-11-17T17:27:31.474Z,73.75
2023-11-17T17:29:36.202Z,73.93
2023-11-17T17:31:41.308Z,74.37
2023-11-17T17:33:46.142Z,74.39
2023-11-17T17:35:50.907Z,73.93
2023-11-17T17:37:56.741Z,72.87
2023-11-17T17:40:04.826Z,72.70
2023-11-17T17:42:09.502Z,73.10
2023-11-17T17:44:14.192Z,73.19
2023-11-17T17:46:18.933Z,72.74
2023-11-17T17:48:23.822Z,72.78
2023-11-17T17:50:30.298Z,72.31
2023-11-17T17:52:36.925Z,72.86
2023-11-17T17:54:41.753Z,72.50
2023-11-17T17:56:46.371Z,72.66
2023-11-17T17:58:51.077Z,72.48
2023-11-17T18:00:56.235Z,72.46
2023-11-17T18:03:02.565Z,73.01
2023-11-17T18:05:09.156Z,73.33
2023-11-17T18:07:13.986Z,73.55
2023-11-17T18:09:19.157Z,73.57
2023-11-17T18:11:24.300Z,74.36
2023-11-17T18:13:29.102Z,74.70
2023-11-17T18:15:34.063Z,75.18
2023-11-17T18:17:39.529Z,75.67
2023-11-17T18:19:47.245Z,75.39
2023-11-17T18:21:51.986Z,75.97
2023-11-17T18:23:56.723Z,76.37
2023-11-17T18:26:14.720Z,76.52
2023-11-17T18:28:26.960Z,76.91
2023-11-17T18:30:32.634Z,76.08
2023-11-17T18:32:40.618Z,76.14
2023-11-17T18:34:45.298Z,76.44
2023-11-17T18:36:55.095Z,76.88
2023-11-17T18:38:59.902Z,77.08
2023-11-17T18:41:05.686Z,76.99
2023-11-17T18:43:11.051Z,76.92
2023-11-17T18:45:16.472Z,76.81
2023-11-17T18:47:21.305Z,76.89
2023-11-17T18:49:26.343Z,76.80
2023-11-17T18:51:31.131Z,76.77
2023-11-17T18:53:35.808Z,77.33
2023-11-17T18:55:41.069Z,77.56
2023-11-17T18:57:47.517Z,77.16
2023-11-17T18:59:53.054Z,77.29
2023-11-17T19:01:57.883Z,77.18
2023-11-17T19:04:06.205Z,77.18
2023-11-17T19:06:11.847Z,77.06
2023-11-17T19:08:16.715Z,77.55
2023-11-17T19:10:22.365Z,76.61
2023-11-17T19:12:30.218Z,77.09
2023-11-17T19:14:35.059Z,76.81
2023-11-17T19:16:39.861Z,77.26
2023-11-17T19:18:45.444Z,76.27
2023-11-17T19:20:50.339Z,75.37
2023-11-17T19:22:55.123Z,74.55
2023-11-17T19:25:00.030Z,74.33
2023-11-17T19:27:07.048Z,72.61
2023-11-17T19:29:12.299Z,72.08
2023-11-17T19:31:18.561Z,71.70
2023-11-17T19:33:23.445Z,71.45
2023-11-17T19:35:28.280Z,71.46
2023-11-17T19:37:32.991Z,70.50
2023-11-17T19:39:37.865Z,70.56
2023-11-17T19:41:43.624Z,70.57
2023-11-17T19:43:51.361Z,69.91
2023-11-17T19:45:56.355Z,69.59
2023-11-17T19:48:04.125Z,69.71
2023-11-17T19:50:15.266Z,70.58
2023-11-17T19:52:21.652Z,69.85
2023-11-17T19:54:26.441Z,70.04
2023-11-17T19:56:31.216Z,70.47
2023-11-17T19:58:36.152Z,70.96
2023-11-17T20:00:40.837Z,71.46
2023-11-17T20:02:46.324Z,71.30
2023-11-17T20:04:51.880Z,71.18
2023-11-17T20:06:57.375Z,71.40
2023-11-17T20:09:03.907Z,71.74
2023-11-17T20:11:08.781Z,71.76
2023-11-17T20:13:14.123Z,71.67
2023-11-17T20:15:19.537Z,71.12
2023-11-17T20:17:28.809Z,70.95
2023-11-17T20:19:39.968Z,71.82
2023-11-17T20:21:45.494Z,71.58
2023-11-17T20:23:50.346Z,70.92
2023-11-17T20:25:55.786Z,70.08
2023-11-17T20:28:01.521Z,69.64
2023-11-17T20:30:08.351Z,69.77
2023-11-17T20:32:13.754Z,69.19
2023-11-17T20:34:19.600Z,69.47
2023-11-17T20:36:24.470Z,69.86
2023-11-17T20:38:29.792Z,69.48
2023-11-17T20:40:35.145Z,69.84
2023-11-17T20:42:40.011Z,69.69
2023-11-17T20:44:44.717Z,69.66
2023-11-17T20:46:50.254Z,68.91
2023-11-17T20:48:55.608Z,69.46
2023-11-17T20:51:00.520Z,69.12
2023-11-17T20:53:06.018Z,69.05
2023-11-17T20:55:11.130Z,68.54
2023-11-17T20:57:15.799Z,69.11
2023-11-17T20:59:20.503Z,69.45
2023-11-17T21:01:25.252Z,69.31
2023-11-17T21:03:30.401Z,69.40
2023-11-17T21:05:35.291Z,70.03
2023-11-17T21:07:40.160Z,69.92
2023-11-17T21:09:45.089Z,69.71
2023-11-17T21:11:50.112Z,69.98
2023-11-17T21:16:00.221Z,70.01
2023-11-17T21:18:05.354Z,69.95
2023-11-17T21:20:12.169Z,70.12
2023-11-17T21:22:16.829Z,70.34
2023-11-17T21:24:27.518Z,70.04
2023-11-17T21:26:32.934Z,70.13
2023-11-17T21:28:37.832Z,70.06
2023-11-17T21:30:42.697Z,69.85
2023-11-17T21:32:48.785Z,70.37
2023-11-17T21:34:54.143Z,69.56
2023-11-17T21:36:58.965Z,68.95
2023-11-17T21:39:04.040Z,69.14
2023-11-17T21:41:09.287Z,69.21
2023-11-17T21:43:14.121Z,68.30
2023-11-17T21:45:20.243Z,68.37
2023-11-17T21:47:24.953Z,68.48
2023-11-17T21:49:29.624Z,68.14
2023-11-17T21:51:39.585Z,68.24
2023-11-17T21:53:44.864Z,67.95
2023-11-17T21:55:50.061Z,67.92
2023-11-17T21:57:55.681Z,68.07
2023-11-17T22:00:00.679Z,67.58
2023-11-17T22:02:06.103Z,67.30
2023-11-17T22:04:10.860Z,67.33
2023-11-17T22:06:15.956Z,67.30
2023-11-17T22:08:20.690Z,67.21
2023-11-17T22:10:25.498Z,67.06
2023-11-17T22:12:30.149Z,67.26
2023-11-17T22:14:34.943Z,67.40
2023-11-17T22:16:39.687Z,67.39
2023-11-17T22:18:44.391Z,67.35
2023-11-17T22:20:49.127Z,67.43
2023-11-17T22:22:56.560Z,67.11
2023-11-17T22:25:01.398Z,66.58
2023-11-17T22:27:06.535Z,66.92
2023-11-17T22:29:11.197Z,67.30
2023-11-17T22:31:15.903Z,66.53
2023-11-17T22:33:20.658Z,66.52
2023-11-17T22:35:25.676Z,66.63
2023-11-17T22:37:30.508Z,67.00
2023-11-17T22:39:35.238Z,67.62
2023-11-17T22:41:39.850Z,66.88
2023-11-17T22:43:44.499Z,67.57
2023-11-17T22:45:49.299Z,67.47
2023-11-17T22:47:54.233Z,67.63
2023-11-17T22:49:59.034Z,67.87
2023-11-17T22:52:04.152Z,67.89
2023-11-17T22:54:09.175Z,68.07
2023-11-17T22:56:20.233Z,68.18
2023-11-17T22:58:24.889Z,68.23
2023-11-17T23:00:29.548Z,68.72
2023-11-17T23:02:34.575Z,68.89
2023-11-17T23:04:39.555Z,69.11
2023-11-17T23:06:44.258Z,69.81
2023-11-17T23:08:49.108Z,70.50
2023-11-17T23:10:53.818Z,70.47
2023-11-17T23:12:58.539Z,71.06
2023-11-17T23:15:03.344Z,71.66
2023-11-17T23:17:08.347Z,72.53
2023-11-17T23:19:18.086Z,73.00
2023-11-17T23:21:25.082Z,73.56
2023-11-17T23:23:29.768Z,74.14
2023-11-17T23:25:34.609Z,74.14
2023-11-17T23:27:39.818Z,74.75
2023-11-17T23:29:44.481Z,75.10
2023-11-17T23:31:49.188Z,75.63
2023-11-17T23:33:53.894Z,75.80
2023-11-17T23:35:58.550Z,75.69
2023-11-17T23:38:03.312Z,75.90
2023-11-17T23:40:09.594Z,75.91
2023-11-17T23:42:14.276Z,76.32
2023-11-17T23:44:18.991Z,76.14
2023-11-17T23:46:24.676Z,76.35
2023-11-17T23:48:29.424Z,76.98
2023-11-17T23:50:34.115Z,77.28
2023-11-17T23:52:38.781Z,77.74
2023-11-17T23:54:43.491Z,78.31
2023-11-17T23:56:48.089Z,78.86
2023-11-17T23:58:52.857Z,79.10
